sensor_id;sensor_type;location;lat;lon;timestamp;pressure;altitude;pressure_sealevel;temperature
64470;BMP280;50854;48.538;14.352;2022-10-10T00:00:29;93783.19;;;4.58
64470;BMP280;50854;48.538;14.352;2022-10-10T00:01:30;93784.66;;;4.59
64470;BMP280;50854;48.538;14.352;2022-10-10T00:02:31;93780.50;;;4.58
64470;BMP280;50854;48.538;14.352;2022-10-10T00:03:31;93775.16;;;4.58
64470;BMP280;50854;48.538;14.352;2022-10-10T00:04:31;93783.00;;;4.62
64470;BMP280;50854;48.538;14.352;2022-10-10T00:05:31;93775.91;;;4.58
64470;BMP280;50854;48.538;14.352;2022-10-10T00:06:32;93774.44;;;4.57
64470;BMP280;50854;48.538;14.352;2022-10-10T00:07:32;93770.53;;;4.58
64470;BMP280;50854;48.538;14.352;2022-10-10T00:08:32;93778.13;;;4.60
64470;BMP280;50854;48.538;14.352;2022-10-10T00:09:33;93775.69;;;4.62
64470;BMP280;50854;48.538;14.352;2022-10-10T00:10:33;93771.81;;;4.63
64470;BMP280;50854;48.538;14.352;2022-10-10T00:11:33;93774.50;;;4.63
64470;BMP280;50854;48.538;14.352;2022-10-10T00:12:34;93772.81;;;4.66
64470;BMP280;50854;48.538;14.352;2022-10-10T00:13:34;93771.63;;;4.67
64470;BMP280;50854;48.538;14.352;2022-10-10T00:14:35;93763.53;;;4.61
64470;BMP280;50854;48.538;14.352;2022-10-10T00:15:35;93768.59;;;4.59
64470;BMP280;50854;48.538;14.352;2022-10-10T00:16:35;93761.84;;;4.64
64470;BMP280;50854;48.538;14.352;2022-10-10T00:17:35;93767.66;;;4.62
64470;BMP280;50854;48.538;14.352;2022-10-10T00:18:36;93764.22;;;4.56
64470;BMP280;50854;48.538;14.352;2022-10-10T00:19:36;93764.19;;;4.50
64470;BMP280;50854;48.538;14.352;2022-10-10T00:20:37;93759.34;;;4.54
64470;BMP280;50854;48.538;14.352;2022-10-10T00:21:37;93758.88;;;4.56
64470;BMP280;50854;48.538;14.352;2022-10-10T00:22:37;93762.28;;;4.56
64470;BMP280;50854;48.538;14.352;2022-10-10T00:23:38;93770.78;;;4.55
64470;BMP280;50854;48.538;14.352;2022-10-10T00:24:38;93762.47;;;4.53
64470;BMP280;50854;48.538;14.352;2022-10-10T00:25:38;93760.75;;;4.50
64470;BMP280;50854;48.538;14.352;2022-10-10T00:26:39;93757.06;;;4.47
64470;BMP280;50854;48.538;14.352;2022-10-10T00:27:39;93760.03;;;4.49
64470;BMP280;50854;48.538;14.352;2022-10-10T00:28:39;93755.88;;;4.48
64470;BMP280;50854;48.538;14.352;2022-10-10T00:29:39;93761.97;;;4.49
64470;BMP280;50854;48.538;14.352;2022-10-10T00:30:40;93766.38;;;4.52
64470;BMP280;50854;48.538;14.352;2022-10-10T00:31:40;93757.34;;;4.49
64470;BMP280;50854;48.538;14.352;2022-10-10T00:32:40;93756.63;;;4.49
64470;BMP280;50854;48.538;14.352;2022-10-10T00:33:40;93759.22;;;4.43
64470;BMP280;50854;48.538;14.352;2022-10-10T00:34:41;93762.22;;;4.25
64470;BMP280;50854;48.538;14.352;2022-10-10T00:35:41;93760.81;;;4.29
64470;BMP280;50854;48.538;14.352;2022-10-10T00:36:41;93756.00;;;4.34
64470;BMP280;50854;48.538;14.352;2022-10-10T00:37:41;93755.53;;;4.35
64470;BMP280;50854;48.538;14.352;2022-10-10T00:38:42;93761.69;;;4.21
64470;BMP280;50854;48.538;14.352;2022-10-10T00:39:42;93755.84;;;4.22
64470;BMP280;50854;48.538;14.352;2022-10-10T00:40:44;93752.50;;;4.27
64470;BMP280;50854;48.538;14.352;2022-10-10T00:41:44;93761.72;;;4.26
64470;BMP280;50854;48.538;14.352;2022-10-10T00:42:45;93757.03;;;4.16
64470;BMP280;50854;48.538;14.352;2022-10-10T00:44:04;93753.63;;;4.15
64470;BMP280;50854;48.538;14.352;2022-10-10T00:46:24;93753.47;;;4.24
64470;BMP280;50854;48.538;14.352;2022-10-10T00:47:24;93751.03;;;4.26
64470;BMP280;50854;48.538;14.352;2022-10-10T00:48:26;93755.94;;;4.28
64470;BMP280;50854;48.538;14.352;2022-10-10T00:49:28;93755.47;;;4.29
64470;BMP280;50854;48.538;14.352;2022-10-10T00:50:29;93749.81;;;4.27
64470;BMP280;50854;48.538;14.352;2022-10-10T00:51:30;93753.25;;;4.28
64470;BMP280;50854;48.538;14.352;2022-10-10T00:52:31;93747.91;;;4.28
64470;BMP280;50854;48.538;14.352;2022-10-10T00:53:33;93751.25;;;4.23
64470;BMP280;50854;48.538;14.352;2022-10-10T00:54:34;93755.84;;;4.22
64470;BMP280;50854;48.538;14.352;2022-10-10T00:55:35;93753.47;;;4.24
64470;BMP280;50854;48.538;14.352;2022-10-10T00:56:47;93750.00;;;4.18
64470;BMP280;50854;48.538;14.352;2022-10-10T00:57:48;93741.22;;;4.18
64470;BMP280;50854;48.538;14.352;2022-10-10T00:58:49;93745.38;;;4.19
64470;BMP280;50854;48.538;14.352;2022-10-10T00:59:50;93747.06;;;4.16
64470;BMP280;50854;48.538;14.352;2022-10-10T01:00:52;93742.66;;;4.13
64470;BMP280;50854;48.538;14.352;2022-10-10T01:01:53;93748.28;;;4.15
64470;BMP280;50854;48.538;14.352;2022-10-10T01:02:53;93738.09;;;4.19
64470;BMP280;50854;48.538;14.352;2022-10-10T01:03:58;93744.13;;;4.14
64470;BMP280;50854;48.538;14.352;2022-10-10T01:04:58;93742.66;;;4.13
64470;BMP280;50854;48.538;14.352;2022-10-10T01:05:59;93743.41;;;4.14
64470;BMP280;50854;48.538;14.352;2022-10-10T01:07:00;93741.00;;;3.95
64470;BMP280;50854;48.538;14.352;2022-10-10T01:08:01;93737.28;;;3.87
64470;BMP280;50854;48.538;14.352;2022-10-10T01:09:02;93736.66;;;3.98
64470;BMP280;50854;48.538;14.352;2022-10-10T01:10:07;93737.69;;;4.06
64470;BMP280;50854;48.538;14.352;2022-10-10T01:16:33;93737.88;;;4.23
64470;BMP280;50854;48.538;14.352;2022-10-10T01:19:14;93725.31;;;4.29
64470;BMP280;50854;48.538;14.352;2022-10-10T01:29:31;93720.31;;;4.16
64470;BMP280;50854;48.538;14.352;2022-10-10T01:30:32;93726.91;;;4.21
64470;BMP280;50854;48.538;14.352;2022-10-10T01:31:34;93730.50;;;4.12
64470;BMP280;50854;48.538;14.352;2022-10-10T01:34:53;93715.44;;;3.68
64470;BMP280;50854;48.538;14.352;2022-10-10T01:39:02;93729.13;;;3.76
64470;BMP280;50854;48.538;14.352;2022-10-10T01:40:07;93723.56;;;3.80
64470;BMP280;50854;48.538;14.352;2022-10-10T01:41:12;93727.69;;;3.81
64470;BMP280;50854;48.538;14.352;2022-10-10T01:42:23;93723.38;;;3.83
64470;BMP280;50854;48.538;14.352;2022-10-10T01:43:25;93720.75;;;3.89
64470;BMP280;50854;48.538;14.352;2022-10-10T01:45:35;93720.88;;;4.00
64470;BMP280;50854;48.538;14.352;2022-10-10T14:16:33;93762.72;;;17.40
64470;BMP280;50854;48.538;14.352;2022-10-10T14:17:33;93767.34;;;17.37
64470;BMP280;50854;48.538;14.352;2022-10-10T14:18:33;93754.50;;;17.30
64470;BMP280;50854;48.538;14.352;2022-10-10T14:19:34;93767.25;;;17.28
64470;BMP280;50854;48.538;14.352;2022-10-10T14:20:34;93755.84;;;17.22
64470;BMP280;50854;48.538;14.352;2022-10-10T14:21:34;93756.91;;;17.26
64470;BMP280;50854;48.538;14.352;2022-10-10T14:22:34;93761.88;;;17.20
64470;BMP280;50854;48.538;14.352;2022-10-10T14:23:35;93765.41;;;17.30
64470;BMP280;50854;48.538;14.352;2022-10-10T14:24:36;93753.78;;;17.30
64470;BMP280;50854;48.538;14.352;2022-10-10T14:25:39;93764.63;;;17.37
64470;BMP280;50854;48.538;14.352;2022-10-10T14:26:40;93770.41;;;17.41
64470;BMP280;50854;48.538;14.352;2022-10-10T14:27:40;93764.28;;;17.50
64470;BMP280;50854;48.538;14.352;2022-10-10T14:28:40;93764.03;;;17.56
64470;BMP280;50854;48.538;14.352;2022-10-10T14:29:41;93768.59;;;17.54
64470;BMP280;50854;48.538;14.352;2022-10-10T14:30:41;93755.59;;;17.62
64470;BMP280;50854;48.538;14.352;2022-10-10T14:31:41;93759.91;;;17.65
64470;BMP280;50854;48.538;14.352;2022-10-10T14:32:42;93760.22;;;17.69
64470;BMP280;50854;48.538;14.352;2022-10-10T14:33:42;93765.84;;;17.71
64470;BMP280;50854;48.538;14.352;2022-10-10T14:34:43;93764.56;;;17.72
64470;BMP280;50854;48.538;14.352;2022-10-10T14:35:44;93765.59;;;17.76
64470;BMP280;50854;48.538;14.352;2022-10-10T14:36:45;93765.75;;;17.78
64470;BMP280;50854;48.538;14.352;2022-10-10T14:37:46;93765.50;;;17.84
64470;BMP280;50854;48.538;14.352;2022-10-10T14:38:46;93765.63;;;17.86
64470;BMP280;50854;48.538;14.352;2022-10-10T14:39:48;93767.84;;;17.88
64470;BMP280;50854;48.538;14.352;2022-10-10T14:40:48;93764.19;;;17.85
64470;BMP280;50854;48.538;14.352;2022-10-10T14:41:49;93767.34;;;17.81
64470;BMP280;50854;48.538;14.352;2022-10-10T14:42:49;93771.06;;;17.76
64470;BMP280;50854;48.538;14.352;2022-10-10T14:43:49;93769.06;;;17.77
64470;BMP280;50854;48.538;14.352;2022-10-10T14:44:50;93766.72;;;17.73
64470;BMP280;50854;48.538;14.352;2022-10-10T14:45:50;93768.34;;;17.76
64470;BMP280;50854;48.538;14.352;2022-10-10T14:46:51;93769.19;;;17.79
64470;BMP280;50854;48.538;14.352;2022-10-10T14:47:51;93767.84;;;17.88
64470;BMP280;50854;48.538;14.352;2022-10-10T14:48:51;93757.09;;;17.99
64470;BMP280;50854;48.538;14.352;2022-10-10T14:49:52;93762.75;;;17.84
64470;BMP280;50854;48.538;14.352;2022-10-10T14:50:52;93767.44;;;17.74
64470;BMP280;50854;48.538;14.352;2022-10-10T14:51:52;93763.91;;;17.64
64470;BMP280;50854;48.538;14.352;2022-10-10T14:52:52;93770.88;;;17.74
64470;BMP280;50854;48.538;14.352;2022-10-10T14:53:53;93766.34;;;17.77
64470;BMP280;50854;48.538;14.352;2022-10-10T14:54:53;93768.41;;;17.69
64470;BMP280;50854;48.538;14.352;2022-10-10T14:55:53;93758.50;;;17.46
64470;BMP280;50854;48.538;14.352;2022-10-10T14:56:54;93762.88;;;17.59
64470;BMP280;50854;48.538;14.352;2022-10-10T14:57:54;93756.31;;;17.62
64470;BMP280;50854;48.538;14.352;2022-10-10T14:58:54;93763.59;;;17.60
64470;BMP280;50854;48.538;14.352;2022-10-10T14:59:54;93760.25;;;17.34
64470;BMP280;50854;48.538;14.352;2022-10-10T15:00:55;93766.13;;;17.48
64470;BMP280;50854;48.538;14.352;2022-10-10T15:01:55;93768.53;;;17.44
64470;BMP280;50854;48.538;14.352;2022-10-10T15:02:55;93768.53;;;17.44
64470;BMP280;50854;48.538;14.352;2022-10-10T15:03:55;93763.31;;;17.38
64470;BMP280;50854;48.538;14.352;2022-10-10T15:04:56;93767.47;;;17.39
64470;BMP280;50854;48.538;14.352;2022-10-10T15:05:56;93764.78;;;17.22
64470;BMP280;50854;48.538;14.352;2022-10-10T15:06:56;93766.28;;;17.15
64470;BMP280;50854;48.538;14.352;2022-10-10T15:07:57;93769.41;;;16.95
64470;BMP280;50854;48.538;14.352;2022-10-10T15:08:57;93768.22;;;17.05
64470;BMP280;50854;48.538;14.352;2022-10-10T15:09:57;93764.84;;;17.14
64470;BMP280;50854;48.538;14.352;2022-10-10T15:10:57;93763.34;;;17.21
64470;BMP280;50854;48.538;14.352;2022-10-10T15:11:57;93765.88;;;17.19
64470;BMP280;50854;48.538;14.352;2022-10-10T15:12:58;93763.25;;;17.11
64470;BMP280;50854;48.538;14.352;2022-10-10T15:13:58;93768.16;;;17.13
64470;BMP280;50854;48.538;14.352;2022-10-10T15:14:58;93762.19;;;16.90
64470;BMP280;50854;48.538;14.352;2022-10-10T15:15:59;93761.53;;;16.81
64470;BMP280;50854;48.538;14.352;2022-10-10T15:16:59;93756.72;;;16.90
64470;BMP280;50854;48.538;14.352;2022-10-10T15:17:59;93767.56;;;16.97
64470;BMP280;50854;48.538;14.352;2022-10-10T15:19:00;93762.91;;;16.90
64470;BMP280;50854;48.538;14.352;2022-10-10T15:20:00;93762.19;;;16.90
64470;BMP280;50854;48.538;14.352;2022-10-10T15:21:06;93764.03;;;16.87
64470;BMP280;50854;48.538;14.352;2022-10-10T15:22:06;93763.06;;;16.92
64470;BMP280;50854;48.538;14.352;2022-10-10T15:23:06;93769.81;;;16.91
64470;BMP280;50854;48.538;14.352;2022-10-10T15:24:07;93765.06;;;16.92
64470;BMP280;50854;48.538;14.352;2022-10-10T15:25:07;93764.97;;;16.82
64470;BMP280;50854;48.538;14.352;2022-10-10T15:26:08;93768.34;;;16.73
64470;BMP280;50854;48.538;14.352;2022-10-10T15:27:08;93764.22;;;16.64
64470;BMP280;50854;48.538;14.352;2022-10-10T15:28:08;93764.94;;;16.65
64470;BMP280;50854;48.538;14.352;2022-10-10T15:29:09;93763.84;;;16.68
64470;BMP280;50854;48.538;14.352;2022-10-10T15:30:09;93772.53;;;16.49
64470;BMP280;50854;48.538;14.352;2022-10-10T15:31:09;93765.47;;;16.46
64470;BMP280;50854;48.538;14.352;2022-10-10T15:32:10;93765.28;;;16.44
64470;BMP280;50854;48.538;14.352;2022-10-10T15:33:10;93768.47;;;16.33
64470;BMP280;50854;48.538;14.352;2022-10-10T15:34:10;93768.63;;;16.35
64470;BMP280;50854;48.538;14.352;2022-10-10T15:35:14;93768.72;;;16.19
64470;BMP280;50854;48.538;14.352;2022-10-10T15:36:15;93772.56;;;16.16
64470;BMP280;50854;48.538;14.352;2022-10-10T15:37:16;93769.16;;;16.08
64470;BMP280;50854;48.538;14.352;2022-10-10T15:38:16;93775.00;;;16.05
64470;BMP280;50854;48.538;14.352;2022-10-10T15:39:16;93773.72;;;16.06
64470;BMP280;50854;48.538;14.352;2022-10-10T15:40:18;93767.94;;;16.02
64470;BMP280;50854;48.538;14.352;2022-10-10T15:41:18;93767.22;;;16.01
64470;BMP280;50854;48.538;14.352;2022-10-10T15:42:20;93768.06;;;16.04
64470;BMP280;50854;48.538;14.352;2022-10-10T15:43:20;93769.16;;;16.08
64470;BMP280;50854;48.538;14.352;2022-10-10T15:44:20;93774.84;;;16.03
64470;BMP280;50854;48.538;14.352;2022-10-10T15:45:20;93773.09;;;15.90
64470;BMP280;50854;48.538;14.352;2022-10-10T15:46:21;93771.50;;;15.72
64470;BMP280;50854;48.538;14.352;2022-10-10T15:47:22;93779.56;;;15.54
64470;BMP280;50854;48.538;14.352;2022-10-10T15:48:22;93774.50;;;15.59
64470;BMP280;50854;48.538;14.352;2022-10-10T15:49:23;93773.91;;;15.68
64470;BMP280;50854;48.538;14.352;2022-10-10T15:50:23;93775.88;;;15.75
64470;BMP280;50854;48.538;14.352;2022-10-10T15:51:23;93774.03;;;15.77
64470;BMP280;50854;48.538;14.352;2022-10-10T15:52:24;93772.81;;;15.71
64470;BMP280;50854;48.538;14.352;2022-10-10T15:53:26;93769.16;;;15.68
64470;BMP280;50854;48.538;14.352;2022-10-10T15:54:27;93771.50;;;15.72
64470;BMP280;50854;48.538;14.352;2022-10-10T15:55:27;93777.53;;;15.70
64470;BMP280;50854;48.538;14.352;2022-10-10T15:56:27;93777.94;;;15.51
64470;BMP280;50854;48.538;14.352;2022-10-10T15:57:30;93775.56;;;15.55
64470;BMP280;50854;48.538;14.352;2022-10-10T15:58:31;93766.84;;;15.57
64470;BMP280;50854;48.538;14.352;2022-10-10T15:59:31;93781.19;;;15.57
64470;BMP280;50854;48.538;14.352;2022-10-10T16:00:31;93777.22;;;15.59
64470;BMP280;50854;48.538;14.352;2022-10-10T16:01:31;93781.94;;;15.50
64470;BMP280;50854;48.538;14.352;2022-10-10T16:02:32;93781.06;;;15.40
64470;BMP280;50854;48.538;14.352;2022-10-10T16:03:32;93777.31;;;15.28
64470;BMP280;50854;48.538;14.352;2022-10-10T16:04:32;93790.00;;;15.26
64470;BMP280;50854;48.538;14.352;2022-10-10T16:05:36;93782.03;;;15.28
64470;BMP280;50854;48.538;14.352;2022-10-10T16:06:36;93786.56;;;15.25
64470;BMP280;50854;48.538;14.352;2022-10-10T16:07:36;93786.19;;;15.21
64470;BMP280;50854;48.538;14.352;2022-10-10T16:08:37;93789.63;;;15.21
64470;BMP280;50854;48.538;14.352;2022-10-10T16:09:38;93790.03;;;15.18
64470;BMP280;50854;48.538;14.352;2022-10-10T16:10:39;93788.91;;;15.21
64470;BMP280;50854;48.538;14.352;2022-10-10T16:11:39;93790.03;;;15.18
64470;BMP280;50854;48.538;14.352;2022-10-10T16:12:40;93795.28;;;15.16
64470;BMP280;50854;48.538;14.352;2022-10-10T16:13:40;93788.94;;;15.06
64470;BMP280;50854;48.538;14.352;2022-10-10T16:14:41;93786.41;;;15.00
64470;BMP280;50854;48.538;14.352;2022-10-10T16:15:41;93786.06;;;14.73
64470;BMP280;50854;48.538;14.352;2022-10-10T16:16:41;93791.84;;;14.47
64470;BMP280;50854;48.538;14.352;2022-10-10T16:17:42;93793.34;;;14.55
64470;BMP280;50854;48.538;14.352;2022-10-10T16:18:42;93785.69;;;14.46
64470;BMP280;50854;48.538;14.352;2022-10-10T16:19:42;93787.88;;;14.40
64470;BMP280;50854;48.538;14.352;2022-10-10T16:20:42;93792.75;;;14.42
64470;BMP280;50854;48.538;14.352;2022-10-10T16:21:43;93792.22;;;14.43
64470;BMP280;50854;48.538;14.352;2022-10-10T16:22:43;93786.06;;;14.43
64470;BMP280;50854;48.538;14.352;2022-10-10T16:23:44;93793.47;;;14.42
64470;BMP280;50854;48.538;14.352;2022-10-10T16:24:45;93793.31;;;14.48
64470;BMP280;50854;48.538;14.352;2022-10-10T16:25:45;93787.88;;;14.48
64470;BMP280;50854;48.538;14.352;2022-10-10T16:26:45;93792.03;;;14.41
64470;BMP280;50854;48.538;14.352;2022-10-10T16:27:45;93795.28;;;14.40
64470;BMP280;50854;48.538;14.352;2022-10-10T16:28:46;93800.19;;;14.34
64470;BMP280;50854;48.538;14.352;2022-10-10T16:29:46;93802.72;;;14.32
64470;BMP280;50854;48.538;14.352;2022-10-10T16:30:47;93793.66;;;14.29
64470;BMP280;50854;48.538;14.352;2022-10-10T16:31:47;93801.81;;;14.29
64470;BMP280;50854;48.538;14.352;2022-10-10T16:32:47;93803.78;;;14.13
64470;BMP280;50854;48.538;14.352;2022-10-10T16:33:48;93799.53;;;13.97
64470;BMP280;50854;48.538;14.352;2022-10-10T16:34:48;93805.13;;;13.91
64470;BMP280;50854;48.538;14.352;2022-10-10T16:35:48;93799.50;;;13.82
64470;BMP280;50854;48.538;14.352;2022-10-10T16:36:49;93797.44;;;13.67
64470;BMP280;50854;48.538;14.352;2022-10-10T16:37:49;93802.06;;;13.51
64470;BMP280;50854;48.538;14.352;2022-10-10T16:38:49;93793.72;;;13.49
64470;BMP280;50854;48.538;14.352;2022-10-10T16:39:50;93802.88;;;13.39
64470;BMP280;50854;48.538;14.352;2022-10-10T16:40:50;93796.56;;;13.36
64470;BMP280;50854;48.538;14.352;2022-10-10T16:41:50;93792.97;;;13.41
64470;BMP280;50854;48.538;14.352;2022-10-10T16:42:50;93793.69;;;13.42
64470;BMP280;50854;48.538;14.352;2022-10-10T16:43:51;93793.34;;;13.45
64470;BMP280;50854;48.538;14.352;2022-10-10T16:44:51;93794.22;;;13.40
64470;BMP280;50854;48.538;14.352;2022-10-10T16:45:51;93796.22;;;13.40
64470;BMP280;50854;48.538;14.352;2022-10-10T16:46:51;93793.88;;;13.44
64470;BMP280;50854;48.538;14.352;2022-10-10T16:47:52;93794.44;;;13.50
64470;BMP280;50854;48.538;14.352;2022-10-10T16:48:54;93793.53;;;13.47
64470;BMP280;50854;48.538;14.352;2022-10-10T16:49:55;93798.00;;;13.37
64470;BMP280;50854;48.538;14.352;2022-10-10T16:50:55;93795.44;;;13.39
64470;BMP280;50854;48.538;14.352;2022-10-10T16:51:56;93790.59;;;13.38
64470;BMP280;50854;48.538;14.352;2022-10-10T16:52:56;93795.66;;;13.41
64470;BMP280;50854;48.538;14.352;2022-10-10T16:54:00;93798.91;;;13.40
64470;BMP280;50854;48.538;14.352;2022-10-10T16:55:01;93798.75;;;13.45
64470;BMP280;50854;48.538;14.352;2022-10-10T16:56:02;93796.59;;;13.44
64470;BMP280;50854;48.538;14.352;2022-10-10T16:57:02;93803.41;;;13.29
64470;BMP280;50854;48.538;14.352;2022-10-10T16:58:02;93805.16;;;13.27
64470;BMP280;50854;48.538;14.352;2022-10-10T16:59:03;93798.94;;;13.11
64470;BMP280;50854;48.538;14.352;2022-10-10T17:00:03;93798.03;;;13.16
64470;BMP280;50854;48.538;14.352;2022-10-10T17:01:08;93806.34;;;13.11
64470;BMP280;50854;48.538;14.352;2022-10-10T17:02:09;93806.50;;;13.13
64470;BMP280;50854;48.538;14.352;2022-10-10T17:03:10;93806.06;;;13.01
64470;BMP280;50854;48.538;14.352;2022-10-10T17:04:10;93807.25;;;12.92
64470;BMP280;50854;48.538;14.352;2022-10-10T17:05:10;93806.41;;;12.97
64470;BMP280;50854;48.538;14.352;2022-10-10T17:06:11;93806.34;;;12.90
64470;BMP280;50854;48.538;14.352;2022-10-10T17:07:13;93798.47;;;12.99
64470;BMP280;50854;48.538;14.352;2022-10-10T17:08:13;93803.22;;;13.07
64470;BMP280;50854;48.538;14.352;2022-10-10T17:09:13;93802.16;;;13.10
64470;BMP280;50854;48.538;14.352;2022-10-10T17:10:16;93806.00;;;13.14
64470;BMP280;50854;48.538;14.352;2022-10-10T17:11:16;93799.84;;;13.14
64470;BMP280;50854;48.538;14.352;2022-10-10T17:12:17;93802.22;;;13.17
64470;BMP280;50854;48.538;14.352;2022-10-10T17:13:18;93800.41;;;13.20
64470;BMP280;50854;48.538;14.352;2022-10-10T17:14:18;93796.63;;;13.23
64470;BMP280;50854;48.538;14.352;2022-10-10T17:15:19;93797.03;;;13.27
64470;BMP280;50854;48.538;14.352;2022-10-10T17:16:20;93802.84;;;13.31
64470;BMP280;50854;48.538;14.352;2022-10-10T17:17:21;93800.88;;;13.31
64470;BMP280;50854;48.538;14.352;2022-10-10T17:18:21;93805.56;;;13.31
64470;BMP280;50854;48.538;14.352;2022-10-10T17:19:22;93803.25;;;13.35
64470;BMP280;50854;48.538;14.352;2022-10-10T17:20:22;93796.56;;;13.36
64470;BMP280;50854;48.538;14.352;2022-10-10T17:21:23;93795.44;;;13.39
64470;BMP280;50854;48.538;14.352;2022-10-10T17:22:26;93801.03;;;13.33
64470;BMP280;50854;48.538;14.352;2022-10-10T17:23:27;93796.56;;;13.36
64470;BMP280;50854;48.538;14.352;2022-10-10T17:24:28;93800.00;;;13.37
64470;BMP280;50854;48.538;14.352;2022-10-10T17:25:28;93809.03;;;13.39
64470;BMP280;50854;48.538;14.352;2022-10-10T17:26:30;93798.91;;;13.40
64470;BMP280;50854;48.538;14.352;2022-10-10T17:27:31;93811.75;;;13.39
64470;BMP280;50854;48.538;14.352;2022-10-10T17:28:31;93807.44;;;13.44
64470;BMP280;50854;48.538;14.352;2022-10-10T17:29:31;93813.22;;;13.40
64470;BMP280;50854;48.538;14.352;2022-10-10T17:30:31;93814.44;;;13.39
64470;BMP280;50854;48.538;14.352;2022-10-10T17:31:32;93820.63;;;13.40
64470;BMP280;50854;48.538;14.352;2022-10-10T17:32:32;93825.31;;;13.39
64470;BMP280;50854;48.538;14.352;2022-10-10T17:33:33;93818.56;;;13.25
64470;BMP280;50854;48.538;14.352;2022-10-10T17:34:33;93814.41;;;13.24
64470;BMP280;50854;48.538;14.352;2022-10-10T17:35:37;93820.69;;;13.19
64470;BMP280;50854;48.538;14.352;2022-10-10T17:36:38;93817.25;;;12.97
64470;BMP280;50854;48.538;14.352;2022-10-10T17:37:38;93820.13;;;12.92
64470;BMP280;50854;48.538;14.352;2022-10-10T17:38:38;93813.97;;;12.91
64470;BMP280;50854;48.538;14.352;2022-10-10T17:39:39;93817.75;;;12.88
64470;BMP280;50854;48.538;14.352;2022-10-10T17:40:39;93822.50;;;12.95
64470;BMP280;50854;48.538;14.352;2022-10-10T17:41:40;93818.75;;;12.98
64470;BMP280;50854;48.538;14.352;2022-10-10T17:42:40;93818.38;;;13.02
64470;BMP280;50854;48.538;14.352;2022-10-10T17:43:41;93820.50;;;12.96
64470;BMP280;50854;48.538;14.352;2022-10-10T17:44:41;93822.50;;;12.95
64470;BMP280;50854;48.538;14.352;2022-10-10T17:45:41;93821.03;;;12.94
64470;BMP280;50854;48.538;14.352;2022-10-10T17:46:42;93826.81;;;12.91
64470;BMP280;50854;48.538;14.352;2022-10-10T17:47:43;93816.88;;;12.93
64470;BMP280;50854;48.538;14.352;2022-10-10T17:48:43;93822.50;;;12.95
64470;BMP280;50854;48.538;14.352;2022-10-10T17:49:43;93817.25;;;12.97
64470;BMP280;50854;48.538;14.352;2022-10-10T17:50:45;93824.16;;;12.98
64470;BMP280;50854;48.538;14.352;2022-10-10T17:51:45;93820.91;;;13.00
64470;BMP280;50854;48.538;14.352;2022-10-10T17:52:46;93827.78;;;13.01
64470;BMP280;50854;48.538;14.352;2022-10-10T17:53:46;93824.47;;;12.74
64470;BMP280;50854;48.538;14.352;2022-10-10T17:54:47;93823.06;;;12.60
64470;BMP280;50854;48.538;14.352;2022-10-10T17:55:47;93825.75;;;12.73
64470;BMP280;50854;48.538;14.352;2022-10-10T17:56:48;93818.13;;;12.71
64470;BMP280;50854;48.538;14.352;2022-10-10T17:57:48;93825.88;;;12.67
64470;BMP280;50854;48.538;14.352;2022-10-10T17:58:48;93827.88;;;12.67
64470;BMP280;50854;48.538;14.352;2022-10-10T17:59:49;93823.50;;;12.64
64470;BMP280;50854;48.538;14.352;2022-10-10T18:00:49;93825.00;;;12.72
64470;BMP280;50854;48.538;14.352;2022-10-10T18:01:50;93829.38;;;12.76
64470;BMP280;50854;48.538;14.352;2022-10-10T18:02:50;93826.28;;;12.71
64470;BMP280;50854;48.538;14.352;2022-10-10T18:03:50;93827.63;;;12.78
64470;BMP280;50854;48.538;14.352;2022-10-10T18:04:50;93828.66;;;12.75
64470;BMP280;50854;48.538;14.352;2022-10-10T18:05:51;93825.94;;;12.75
64470;BMP280;50854;48.538;14.352;2022-10-10T18:06:51;93825.41;;;12.77
64470;BMP280;50854;48.538;14.352;2022-10-10T18:07:51;93823.63;;;12.79
64470;BMP280;50854;48.538;14.352;2022-10-10T18:08:53;93826.53;;;12.81
64470;BMP280;50854;48.538;14.352;2022-10-10T18:09:54;93823.63;;;12.79
64470;BMP280;50854;48.538;14.352;2022-10-10T18:10:54;93824.09;;;12.70
64470;BMP280;50854;48.538;14.352;2022-10-10T18:11:54;93816.63;;;12.63
64470;BMP280;50854;48.538;14.352;2022-10-10T18:12:55;93826.75;;;12.62
64470;BMP280;50854;48.538;14.352;2022-10-10T18:13:56;93820.78;;;12.64
64470;BMP280;50854;48.538;14.352;2022-10-10T18:14:59;93820.13;;;12.71
64470;BMP280;50854;48.538;14.352;2022-10-10T18:16:05;93830.56;;;12.67
64470;BMP280;50854;48.538;14.352;2022-10-10T18:17:05;93810.84;;;12.66
64470;BMP280;50854;48.538;14.352;2022-10-10T18:18:06;93823.88;;;12.68
64470;BMP280;50854;48.538;14.352;2022-10-10T18:19:06;93813.44;;;12.72
64470;BMP280;50854;48.538;14.352;2022-10-10T18:20:06;93821.25;;;12.76
64470;BMP280;50854;48.538;14.352;2022-10-10T18:21:07;93822.91;;;12.79
64470;BMP280;50854;48.538;14.352;2022-10-10T18:22:08;93824.53;;;12.82
64470;BMP280;50854;48.538;14.352;2022-10-10T18:23:08;93826.75;;;12.83
64470;BMP280;50854;48.538;14.352;2022-10-10T18:24:08;93817.50;;;12.86
64470;BMP280;50854;48.538;14.352;2022-10-10T18:25:08;93822.78;;;12.84
64470;BMP280;50854;48.538;14.352;2022-10-10T18:26:13;93827.88;;;12.67
64470;BMP280;50854;48.538;14.352;2022-10-10T18:27:14;93822.09;;;12.70
64470;BMP280;50854;48.538;14.352;2022-10-10T18:28:14;93833.34;;;12.74
64470;BMP280;50854;48.538;14.352;2022-10-10T18:29:14;93837.91;;;12.80
64470;BMP280;50854;48.538;14.352;2022-10-10T18:30:15;93836.25;;;12.77
64470;BMP280;50854;48.538;14.352;2022-10-10T18:31:16;93838.22;;;12.76
64470;BMP280;50854;48.538;14.352;2022-10-10T18:32:17;93840.63;;;12.80
64470;BMP280;50854;48.538;14.352;2022-10-10T18:33:17;93837.59;;;12.83
64470;BMP280;50854;48.538;14.352;2022-10-10T18:34:17;93838.50;;;12.86
64470;BMP280;50854;48.538;14.352;2022-10-10T18:35:17;93839.63;;;12.90
64470;BMP280;50854;48.538;14.352;2022-10-10T18:36:20;93837.66;;;12.91
64470;BMP280;50854;48.538;14.352;2022-10-10T18:37:20;93841.09;;;12.91
64470;BMP280;50854;48.538;14.352;2022-10-10T18:38:20;93839.81;;;12.92
64470;BMP280;50854;48.538;14.352;2022-10-10T18:39:21;93833.88;;;12.94
64470;BMP280;50854;48.538;14.352;2022-10-10T18:40:21;93836.06;;;12.95